createdAt,value
2018-06-15T00:00:41.020Z,46.58
2018-06-15T00:03:07.705Z,46.62
2018-06-15T00:05:34.357Z,46.60
2018-06-15T00:08:00.995Z,46.66
2018-06-15T00:10:27.669Z,46.59
2018-06-15T00:12:54.375Z,46.58
2018-06-15T00:15:21.031Z,46.54
2018-06-15T00:17:47.684Z,46.50
2018-06-15T00:20:14.366Z,46.50
2018-06-15T00:22:41.017Z,46.44
2018-06-15T00:25:07.738Z,46.46
2018-06-15T00:27:34.387Z,46.44
2018-06-15T00:30:01.092Z,46.49
2018-06-15T00:32:27.746Z,46.43
2018-06-15T00:34:54.445Z,46.43
2018-06-15T00:37:21.122Z,46.37
2018-06-15T00:39:47.747Z,46.39
2018-06-15T00:42:14.401Z,46.35
2018-06-15T00:44:41.060Z,46.11
2018-06-15T00:47:07.761Z,46.24
2018-06-15T00:49:34.416Z,46.17
2018-06-15T00:52:01.050Z,46.17
2018-06-15T00:54:27.761Z,46.18
2018-06-15T00:56:54.415Z,46.15
2018-06-15T00:59:21.119Z,46.19
2018-06-15T01:01:47.802Z,46.13
2018-06-15T01:04:14.420Z,46.10
2018-06-15T01:06:41.146Z,46.22
2018-06-15T01:09:07.906Z,46.22
2018-06-15T01:11:34.608Z,46.13
2018-06-15T01:14:01.311Z,46.15
2018-06-15T01:16:28.114Z,46.09
2018-06-15T01:18:54.781Z,46.13
2018-06-15T01:21:21.475Z,46.10
2018-06-15T01:23:48.327Z,45.98
2018-06-15T01:26:14.983Z,46.08
2018-06-15T01:28:41.614Z,46.06
2018-06-15T01:31:08.280Z,46.08
2018-06-15T01:33:34.993Z,46.10
2018-06-15T01:36:01.716Z,46.04
2018-06-15T01:38:29.644Z,46.00
2018-06-15T01:40:55.030Z,46.03
2018-06-15T01:43:21.652Z,45.98
2018-06-15T01:45:48.448Z,45.89
2018-06-15T01:48:15.099Z,45.94
2018-06-15T01:50:41.793Z,45.92
2018-06-15T01:53:08.427Z,46.03
2018-06-15T01:55:35.136Z,45.96
2018-06-15T01:58:01.836Z,45.95
2018-06-15T02:00:28.447Z,45.93
2018-06-15T02:02:55.112Z,45.90
2018-06-15T02:05:21.811Z,45.88
2018-06-15T02:07:48.516Z,45.88
2018-06-15T02:10:15.192Z,45.89
2018-06-15T02:12:41.859Z,45.83
2018-06-15T02:15:08.556Z,45.81
2018-06-15T02:17:35.221Z,45.85
2018-06-15T02:20:01.896Z,45.80
2018-06-15T02:22:28.548Z,45.83
2018-06-15T02:24:55.214Z,45.83
2018-06-15T02:27:21.900Z,45.85
2018-06-15T02:29:48.547Z,45.90
2018-06-15T02:32:15.239Z,45.80
2018-06-15T02:34:41.905Z,45.84
2018-06-15T02:37:08.648Z,45.77
2018-06-15T02:39:35.353Z,45.78
2018-06-15T02:42:02.061Z,45.75
2018-06-15T02:44:28.760Z,45.71
2018-06-15T02:46:55.446Z,45.81
2018-06-15T02:49:22.070Z,45.81
2018-06-15T02:51:48.734Z,45.81
2018-06-15T02:54:15.448Z,45.74
2018-06-15T02:56:42.173Z,45.76
2018-06-15T02:59:08.827Z,45.79
2018-06-15T03:01:35.598Z,45.79
2018-06-15T03:04:02.237Z,45.74
2018-06-15T03:06:28.912Z,45.83
2018-06-15T03:08:55.586Z,45.93
2018-06-15T03:11:22.289Z,45.90
2018-06-15T03:13:48.945Z,45.79
2018-06-15T03:16:15.631Z,46.26
2018-06-15T03:18:42.273Z,47.03
2018-06-15T03:21:08.924Z,47.41
2018-06-15T03:23:35.583Z,47.09
2018-06-15T03:26:02.270Z,47.32
2018-06-15T03:28:28.982Z,47.85
2018-06-15T03:30:55.630Z,48.02
2018-06-15T03:33:22.273Z,48.18
2018-06-15T03:35:48.908Z,47.98
2018-06-15T03:38:15.643Z,47.93
2018-06-15T03:40:42.321Z,47.85
2018-06-15T03:43:08.976Z,47.89
2018-06-15T03:45:35.686Z,47.85
2018-06-15T03:48:02.356Z,47.97
2018-06-15T03:50:29.007Z,48.20
2018-06-15T03:52:55.701Z,48.15
2018-06-15T03:55:22.365Z,48.40
2018-06-15T03:57:49.117Z,48.01
2018-06-15T04:00:15.797Z,47.82
2018-06-15T04:02:42.455Z,47.98
2018-06-15T04:05:09.171Z,48.02
2018-06-15T04:07:36.012Z,47.63
2018-06-15T04:10:02.648Z,47.55
2018-06-15T04:12:29.300Z,47.13
2018-06-15T04:14:55.986Z,47.05
2018-06-15T04:17:22.662Z,47.53
2018-06-15T04:19:49.353Z,47.87
2018-06-15T04:22:15.995Z,48.15
2018-06-15T04:24:42.710Z,48.37
2018-06-15T04:27:09.420Z,47.98
2018-06-15T04:29:36.082Z,48.29
2018-06-15T04:32:02.732Z,47.95
2018-06-15T04:34:29.406Z,47.77
2018-06-15T04:36:56.099Z,48.01
2018-06-15T04:39:22.791Z,48.03
2018-06-15T04:41:49.441Z,48.01
2018-06-15T04:44:16.165Z,47.84
2018-06-15T04:46:42.782Z,47.64
2018-06-15T04:49:09.440Z,47.35
2018-06-15T04:51:36.138Z,47.20
2018-06-15T04:54:02.875Z,47.26
2018-06-15T04:56:29.489Z,47.08
2018-06-15T04:58:56.190Z,46.89
2018-06-15T05:01:22.850Z,46.74
2018-06-15T05:03:49.634Z,46.56
2018-06-15T05:06:16.288Z,46.54
2018-06-15T05:08:42.943Z,46.36
2018-06-15T05:11:09.608Z,46.20
2018-06-15T05:13:36.307Z,46.07
2018-06-15T05:16:03.014Z,46.03
2018-06-15T05:18:29.750Z,45.92
2018-06-15T05:20:56.373Z,45.74
2018-06-15T05:23:23.120Z,45.37
2018-06-15T05:25:49.782Z,44.32
2018-06-15T05:28:16.418Z,44.39
2018-06-15T05:30:44.968Z,44.88
2018-06-15T05:33:11.705Z,44.40
2018-06-15T05:35:38.388Z,44.38
2018-06-15T05:38:05.082Z,44.45
2018-06-15T05:40:31.731Z,44.28
2018-06-15T05:42:58.352Z,43.36
2018-06-15T05:45:25.071Z,43.58
2018-06-15T05:47:51.762Z,43.72
2018-06-15T05:50:18.437Z,42.85
2018-06-15T05:52:45.168Z,43.27
2018-06-15T05:55:11.791Z,43.36
2018-06-15T05:57:38.451Z,43.83
2018-06-15T06:00:05.119Z,44.95
2018-06-15T06:02:31.830Z,45.32
2018-06-15T06:04:58.489Z,45.00
2018-06-15T06:07:25.251Z,45.76
2018-06-15T06:09:51.900Z,45.72
2018-06-15T06:12:18.516Z,45.73
2018-06-15T06:14:45.211Z,46.20
2018-06-15T06:17:11.869Z,46.09
2018-06-15T06:19:38.596Z,45.93
2018-06-15T06:22:05.261Z,45.79
2018-06-15T06:24:34.263Z,45.77
2018-06-15T06:27:01.014Z,44.48
2018-06-15T06:29:27.632Z,44.76
2018-06-15T06:31:54.329Z,44.23
2018-06-15T06:34:21.021Z,44.36
2018-06-15T06:36:47.682Z,44.07
2018-06-15T06:39:14.346Z,43.85
2018-06-15T06:41:41.026Z,43.90
2018-06-15T06:44:08.079Z,43.40
2018-06-15T06:46:34.777Z,43.58
2018-06-15T06:49:01.494Z,43.34
2018-06-15T06:51:28.191Z,43.35
2018-06-15T06:53:54.899Z,42.77
2018-06-15T06:56:21.552Z,43.02
2018-06-15T06:58:48.257Z,42.59
2018-06-15T07:01:15.889Z,42.67
2018-06-15T07:03:42.736Z,42.42
2018-06-15T07:06:10.824Z,42.31
2018-06-15T07:08:36.142Z,41.27
2018-06-15T07:11:02.849Z,41.60
2018-06-15T07:13:29.577Z,41.95
2018-06-15T07:15:56.347Z,40.94
2018-06-15T07:18:22.969Z,40.89
2018-06-15T07:20:49.737Z,41.66
2018-06-15T07:23:16.386Z,40.53
2018-06-15T07:25:43.165Z,40.88
2018-06-15T07:28:09.876Z,40.69
2018-06-15T07:30:36.560Z,40.86
2018-06-15T07:33:03.283Z,40.50
2018-06-15T07:35:29.982Z,40.88
2018-06-15T07:37:56.855Z,40.51
2018-06-15T07:40:23.602Z,40.50
2018-06-15T07:42:50.308Z,40.43
2018-06-15T07:45:16.994Z,40.12
2018-06-15T07:47:43.634Z,40.38
2018-06-15T07:50:10.334Z,39.91
2018-06-15T07:52:37.054Z,40.17
2018-06-15T07:55:04.196Z,40.07
2018-06-15T07:57:30.952Z,39.93
2018-06-15T07:59:57.697Z,39.80
2018-06-15T08:02:24.397Z,39.70
2018-06-15T08:04:51.096Z,39.46
2018-06-15T08:07:17.774Z,39.98
2018-06-15T08:09:44.469Z,38.75
2018-06-15T08:12:11.150Z,39.50
2018-06-15T08:14:37.822Z,39.44
2018-06-15T08:17:04.557Z,39.61
2018-06-15T08:19:31.249Z,38.84
2018-06-15T08:21:57.972Z,39.30
2018-06-15T08:24:24.624Z,38.72
2018-06-15T08:26:51.342Z,38.84
2018-06-15T08:29:17.987Z,38.53
2018-06-15T08:31:44.906Z,38.48
2018-06-15T08:34:11.616Z,38.77
2018-06-15T08:36:38.244Z,38.74
2018-06-15T08:39:11.954Z,38.86
2018-06-15T08:41:38.660Z,38.36
2018-06-15T08:44:05.310Z,38.47
2018-06-15T08:46:31.957Z,38.08
2018-06-15T08:48:58.662Z,38.26
2018-06-15T08:51:25.452Z,38.57
2018-06-15T08:53:53.185Z,37.75
2018-06-15T08:56:19.873Z,37.98
2018-06-15T08:58:46.482Z,38.57
2018-06-15T09:01:13.226Z,37.96
2018-06-15T09:03:39.988Z,38.17
2018-06-15T09:06:06.647Z,38.48
2018-06-15T09:08:33.273Z,37.98
2018-06-15T09:10:59.954Z,38.00
2018-06-15T09:13:26.674Z,39.05
2018-06-15T09:15:53.318Z,37.79
2018-06-15T09:18:19.953Z,37.65
2018-06-15T09:20:46.627Z,38.35
2018-06-15T09:23:13.275Z,37.92
2018-06-15T09:25:39.967Z,38.04
2018-06-15T09:28:06.707Z,38.46
2018-06-15T09:30:33.421Z,37.91
2018-06-15T09:33:00.063Z,38.28
2018-06-15T09:35:27.947Z,38.66
2018-06-15T09:37:53.393Z,38.11
2018-06-15T09:40:20.039Z,38.09
2018-06-15T09:42:46.723Z,38.42
2018-06-15T09:45:13.412Z,37.57
2018-06-15T09:47:40.162Z,38.55
2018-06-15T09:50:06.796Z,38.08
2018-06-15T09:52:33.628Z,38.36
2018-06-15T09:55:00.347Z,38.39
2018-06-15T09:57:26.952Z,38.10
2018-06-15T09:59:53.628Z,38.59
2018-06-15T10:02:20.266Z,38.36
2018-06-15T10:04:47.022Z,37.93
2018-06-15T10:07:13.761Z,38.11
2018-06-15T10:09:40.470Z,37.99
2018-06-15T10:12:07.108Z,37.57
2018-06-15T10:14:33.855Z,38.25
2018-06-15T10:17:00.548Z,38.03
2018-06-15T10:19:27.191Z,38.37
2018-06-15T10:21:54.198Z,38.26
2018-06-15T10:24:20.860Z,38.91
2018-06-15T10:26:47.512Z,38.46
2018-06-15T10:29:14.224Z,38.42
2018-06-15T10:31:40.876Z,38.84
2018-06-15T10:34:07.515Z,38.67
2018-06-15T10:36:34.204Z,38.72
2018-06-15T10:39:00.946Z,39.14
2018-06-15T10:41:27.564Z,39.01
2018-06-15T10:43:54.211Z,38.97
2018-06-15T10:46:20.872Z,38.97
2018-06-15T10:48:47.531Z,38.95
2018-06-15T10:51:14.293Z,39.29
2018-06-15T10:53:41.110Z,38.64
2018-06-15T10:56:07.800Z,38.93
2018-06-15T10:58:34.492Z,38.24
2018-06-15T11:01:01.228Z,38.02
2018-06-15T11:03:27.884Z,38.50
2018-06-15T11:05:54.529Z,37.84
2018-06-15T11:08:22.236Z,38.64
2018-06-15T11:10:48.941Z,37.77
2018-06-15T11:13:15.550Z,38.04
2018-06-15T11:15:43.328Z,38.05
2018-06-15T11:18:10.037Z,37.44
2018-06-15T11:20:36.741Z,37.57
2018-06-15T11:23:03.630Z,37.87
2018-06-15T11:25:32.999Z,37.80
2018-06-15T11:27:59.713Z,38.17
2018-06-15T11:30:26.364Z,37.89
2018-06-15T11:32:53.109Z,38.42
2018-06-15T11:35:19.735Z,38.09
2018-06-15T11:37:46.389Z,38.19
2018-06-15T11:40:14.188Z,37.64
2018-06-15T11:42:40.998Z,37.41
2018-06-15T11:45:07.728Z,39.15
2018-06-15T11:47:34.357Z,39.44
2018-06-15T11:50:01.033Z,40.32
2018-06-15T11:52:28.779Z,39.76
2018-06-15T11:54:55.428Z,39.80
2018-06-15T11:57:22.124Z,39.09
2018-06-15T11:59:48.778Z,39.29
2018-06-15T12:02:15.485Z,39.35
2018-06-15T12:04:42.104Z,39.41
2018-06-15T12:07:11.239Z,39.39
2018-06-15T12:09:37.908Z,38.96
2018-06-15T12:12:04.665Z,39.40
2018-06-15T12:14:31.353Z,38.83
2018-06-15T12:16:57.982Z,38.41
2018-06-15T12:19:24.639Z,39.13
2018-06-15T12:21:51.327Z,38.71
2018-06-15T12:24:20.104Z,38.31
2018-06-15T12:26:46.815Z,38.89
2018-06-15T12:29:13.471Z,38.63
2018-06-15T12:31:40.237Z,38.41
2018-06-15T12:34:06.938Z,38.81
2018-06-15T12:36:33.601Z,38.49
2018-06-15T12:39:00.246Z,38.48
2018-06-15T12:41:26.919Z,39.72
2018-06-15T12:43:53.583Z,40.54
2018-06-15T12:46:20.253Z,41.06
2018-06-15T12:48:47.385Z,40.11
2018-06-15T12:51:14.079Z,40.60
2018-06-15T12:53:40.753Z,39.61
2018-06-15T12:56:07.398Z,39.79
2018-06-15T12:58:34.153Z,40.09
2018-06-15T13:01:00.806Z,40.31
2018-06-15T13:03:27.507Z,40.44
2018-06-15T13:05:54.128Z,39.61
2018-06-15T13:08:20.788Z,40.02
2018-06-15T13:10:47.440Z,39.68
2018-06-15T13:13:14.113Z,39.32
2018-06-15T13:15:40.784Z,39.83
2018-06-15T13:18:07.421Z,39.13
2018-06-15T13:20:34.171Z,39.04
2018-06-15T13:23:00.806Z,39.37
2018-06-15T13:25:27.492Z,39.38
2018-06-15T13:27:54.185Z,38.66
2018-06-15T13:30:20.847Z,39.49
2018-06-15T13:32:50.355Z,38.89
2018-06-15T13:35:16.995Z,39.07
2018-06-15T13:37:43.635Z,39.37
2018-06-15T13:40:10.322Z,39.14
2018-06-15T13:42:36.993Z,40.29
2018-06-15T13:45:03.653Z,41.03
2018-06-15T13:47:30.326Z,41.25
2018-06-15T13:49:57.146Z,42.19
2018-06-15T13:52:23.829Z,42.42
2018-06-15T13:54:50.442Z,42.77
2018-06-15T13:57:17.104Z,42.60
2018-06-15T13:59:43.741Z,42.43
2018-06-15T14:02:10.407Z,42.77
2018-06-15T14:04:37.082Z,41.93
2018-06-15T14:07:03.694Z,42.58
2018-06-15T14:09:30.424Z,42.69
2018-06-15T14:11:57.366Z,42.83
2018-06-15T14:14:24.011Z,41.94
2018-06-15T14:16:50.739Z,42.04
2018-06-15T14:19:17.419Z,42.28
2018-06-15T14:21:44.066Z,42.51
2018-06-15T14:24:10.718Z,42.20
2018-06-15T14:26:37.363Z,41.98
2018-06-15T14:29:04.006Z,41.52
2018-06-15T14:31:30.650Z,42.44
2018-06-15T14:33:57.338Z,42.90
2018-06-15T14:36:23.975Z,43.03
2018-06-15T14:38:50.669Z,43.47
2018-06-15T14:41:17.307Z,43.42
2018-06-15T14:43:43.946Z,43.77
2018-06-15T14:46:10.609Z,43.80
2018-06-15T14:48:37.526Z,43.21
2018-06-15T14:51:04.168Z,43.01
2018-06-15T14:53:30.819Z,42.76
2018-06-15T14:55:57.865Z,42.76
2018-06-15T14:58:24.490Z,42.46
2018-06-15T15:00:51.163Z,42.32
2018-06-15T15:03:17.802Z,42.38
2018-06-15T15:05:44.483Z,42.23
2018-06-15T15:08:11.122Z,42.25
2018-06-15T15:10:37.772Z,42.22
2018-06-15T15:13:04.444Z,41.88
2018-06-15T15:15:31.048Z,41.89
2018-06-15T15:17:57.728Z,42.00
2018-06-15T15:20:24.347Z,41.99
2018-06-15T15:22:50.987Z,42.05
2018-06-15T15:25:17.622Z,41.88
2018-06-15T15:27:44.340Z,41.84
2018-06-15T15:30:11.082Z,41.96
2018-06-15T15:32:37.673Z,42.01
2018-06-15T15:35:04.318Z,42.01
2018-06-15T15:37:30.957Z,42.22
2018-06-15T15:39:57.692Z,42.45
2018-06-15T15:42:24.366Z,42.25
2018-06-15T15:44:51.048Z,42.20
2018-06-15T15:47:17.751Z,42.17
2018-06-15T15:49:44.351Z,42.21
2018-06-15T15:52:11.045Z,41.98
2018-06-15T15:54:37.785Z,41.77
2018-06-15T15:57:04.489Z,41.89
2018-06-15T15:59:31.203Z,41.82
2018-06-15T16:01:58.058Z,41.80
2018-06-15T16:04:24.776Z,41.80
2018-06-15T16:06:51.420Z,41.81
2018-06-15T16:09:18.050Z,41.57
2018-06-15T16:11:44.710Z,41.68
2018-06-15T16:14:11.339Z,41.57
2018-06-15T16:16:38.018Z,41.64
2018-06-15T16:19:04.697Z,41.64
2018-06-15T16:21:31.336Z,41.80
2018-06-15T16:23:57.990Z,41.95
2018-06-15T16:26:24.728Z,42.09
2018-06-15T16:28:51.364Z,42.32
2018-06-15T16:31:18.000Z,42.48
2018-06-15T16:33:44.684Z,42.53
2018-06-15T16:36:11.289Z,42.60
2018-06-15T16:38:38.013Z,42.82
2018-06-15T16:41:04.613Z,42.79
2018-06-15T16:43:31.257Z,42.87
2018-06-15T16:45:57.933Z,43.09
2018-06-15T16:48:24.655Z,43.18
2018-06-15T16:50:51.259Z,43.29
2018-06-15T16:53:17.895Z,43.33
2018-06-15T16:55:44.545Z,43.26
2018-06-15T16:58:11.181Z,43.54
2018-06-15T17:00:37.823Z,43.60
2018-06-15T17:03:04.508Z,43.65
2018-06-15T17:05:31.135Z,43.79
2018-06-15T17:07:57.768Z,43.72
2018-06-15T17:10:24.410Z,43.86
2018-06-15T17:12:51.096Z,43.81
2018-06-15T17:15:17.772Z,43.91
2018-06-15T17:17:44.382Z,43.98
2018-06-15T17:20:11.038Z,44.09
2018-06-15T17:22:37.675Z,44.15
2018-06-15T17:25:04.309Z,44.14
2018-06-15T17:27:30.949Z,44.05
2018-06-15T17:29:57.633Z,44.36
2018-06-15T17:32:24.271Z,44.35
2018-06-15T17:34:50.972Z,44.41
2018-06-15T17:37:17.606Z,44.59
2018-06-15T17:39:44.241Z,44.70
2018-06-15T17:42:10.884Z,44.78
2018-06-15T17:44:37.562Z,44.78
2018-06-15T17:47:04.158Z,44.78
2018-06-15T17:49:30.793Z,44.87
2018-06-15T17:51:57.446Z,44.99
2018-06-15T17:54:24.086Z,44.95
2018-06-15T17:56:50.761Z,45.17
2018-06-15T17:59:17.397Z,45.12
2018-06-15T18:01:44.041Z,45.34
2018-06-15T18:04:10.693Z,45.36
2018-06-15T18:06:37.344Z,45.48
2018-06-15T18:09:04.000Z,45.51
2018-06-15T18:11:30.694Z,45.58
2018-06-15T18:13:57.372Z,45.63
2018-06-15T18:16:24.007Z,45.76
2018-06-15T18:18:50.710Z,45.79
2018-06-15T18:21:17.350Z,45.83
2018-06-15T18:23:43.996Z,45.78
2018-06-15T18:26:10.635Z,46.06
2018-06-15T18:28:37.309Z,45.98
2018-06-15T18:31:03.994Z,46.08
2018-06-15T18:33:30.718Z,46.06
2018-06-15T18:35:57.357Z,46.21
2018-06-15T18:38:24.026Z,46.17
2018-06-15T18:40:50.664Z,46.30
2018-06-15T18:43:17.345Z,46.40
2018-06-15T18:45:44.004Z,46.47
2018-06-15T18:48:10.684Z,46.52
2018-06-15T18:50:37.319Z,46.50
2018-06-15T18:53:03.957Z,46.52
2018-06-15T18:55:30.599Z,46.55
2018-06-15T18:57:57.242Z,46.66
2018-06-15T19:00:23.890Z,46.56
2018-06-15T19:02:50.538Z,46.62
2018-06-15T19:05:17.177Z,46.62
2018-06-15T19:07:43.893Z,46.64
2018-06-15T19:10:10.547Z,46.68
2018-06-15T19:12:37.226Z,46.81
2018-06-15T19:15:03.906Z,46.78
2018-06-15T19:17:30.541Z,46.72
2018-06-15T19:19:57.185Z,46.88
2018-06-15T19:22:23.835Z,46.84
2018-06-15T19:24:50.465Z,46.89
2018-06-15T19:27:17.145Z,46.87
2018-06-15T19:29:43.745Z,46.89
2018-06-15T19:32:10.414Z,46.99
2018-06-15T19:34:37.102Z,46.85
2018-06-15T19:37:05.924Z,47.02
2018-06-15T19:39:32.605Z,46.99
2018-06-15T19:41:59.223Z,46.91
2018-06-15T19:44:25.899Z,47.05
2018-06-15T19:46:52.538Z,47.00
2018-06-15T19:49:19.211Z,47.06
2018-06-15T19:51:45.821Z,47.07
2018-06-15T19:54:12.453Z,47.09
2018-06-15T19:56:39.156Z,47.06
2018-06-15T19:59:05.847Z,47.08
2018-06-15T20:01:32.426Z,47.08
2018-06-15T20:03:59.071Z,47.02
2018-06-15T20:06:25.799Z,47.06
2018-06-15T20:08:52.410Z,47.07
2018-06-15T20:11:19.094Z,47.09
2018-06-15T20:13:45.737Z,47.08
2018-06-15T20:16:12.368Z,47.09
2018-06-15T20:18:39.010Z,47.10
2018-06-15T20:21:05.651Z,47.12
2018-06-15T20:23:32.377Z,47.16
2018-06-15T20:25:59.066Z,47.17
2018-06-15T20:28:25.702Z,47.10
2018-06-15T20:30:52.418Z,47.18
2018-06-15T20:33:19.029Z,47.14
2018-06-15T20:35:45.670Z,47.13
2018-06-15T20:38:12.406Z,47.22
2018-06-15T20:40:39.096Z,47.27
2018-06-15T20:43:05.733Z,47.23
2018-06-15T20:45:32.417Z,47.25
2018-06-15T20:47:59.057Z,47.20
2018-06-15T20:50:26.778Z,47.16
2018-06-15T20:52:53.412Z,47.24
2018-06-15T20:55:20.051Z,47.21
2018-06-15T20:57:46.693Z,47.20
2018-06-15T21:00:13.330Z,47.20
2018-06-15T21:02:40.052Z,47.34
2018-06-15T21:05:06.654Z,47.28
2018-06-15T21:07:33.383Z,47.31
2018-06-15T21:10:00.082Z,47.28
2018-06-15T21:12:26.772Z,47.30
2018-06-15T21:14:53.415Z,47.21
2018-06-15T21:17:20.038Z,47.24
2018-06-15T21:19:46.686Z,47.20
2018-06-15T21:22:13.322Z,47.25
2018-06-15T21:24:40.040Z,47.30
2018-06-15T21:27:06.654Z,47.22
2018-06-15T21:29:33.293Z,47.34
2018-06-15T21:32:00.035Z,47.24
2018-06-15T21:34:26.557Z,47.27
2018-06-15T21:36:53.201Z,47.30
2018-06-15T21:39:19.834Z,47.30
2018-06-15T21:41:46.513Z,47.29
2018-06-15T21:44:13.160Z,47.32
2018-06-15T21:46:39.845Z,47.31
2018-06-15T21:49:06.478Z,47.19
2018-06-15T21:51:33.125Z,47.31
2018-06-15T21:53:59.802Z,47.30
2018-06-15T21:56:26.483Z,47.30
2018-06-15T21:58:53.150Z,47.25
2018-06-15T22:01:19.797Z,47.30
2018-06-15T22:03:46.491Z,47.26
2018-06-15T22:06:13.130Z,47.27
2018-06-15T22:08:39.797Z,47.29
2018-06-15T22:11:06.410Z,47.18
2018-06-15T22:13:33.095Z,47.31
2018-06-15T22:15:59.765Z,47.24
2018-06-15T22:18:26.418Z,47.29
2018-06-15T22:20:53.055Z,47.29
2018-06-15T22:23:19.748Z,47.32
2018-06-15T22:25:46.427Z,47.26
2018-06-15T22:28:13.103Z,47.32
2018-06-15T22:30:39.787Z,47.32
2018-06-15T22:33:06.422Z,47.36
2018-06-15T22:35:33.061Z,47.38
2018-06-15T22:37:59.717Z,47.38
2018-06-15T22:40:26.436Z,47.39
2018-06-15T22:42:53.037Z,47.28
2018-06-15T22:45:19.689Z,47.37
2018-06-15T22:47:46.381Z,47.33
2018-06-15T22:50:13.034Z,47.22
2018-06-15T22:52:39.684Z,47.26
2018-06-15T22:55:06.357Z,47.28
2018-06-15T22:57:32.992Z,47.27
2018-06-15T22:59:59.670Z,47.32
2018-06-15T23:02:26.301Z,47.31
2018-06-15T23:04:52.973Z,47.29
2018-06-15T23:07:19.640Z,47.35
2018-06-15T23:09:46.282Z,47.35
2018-06-15T23:12:12.922Z,47.35
2018-06-15T23:14:39.720Z,47.38
2018-06-15T23:17:06.400Z,47.31
2018-06-15T23:19:33.035Z,47.36
2018-06-15T23:21:59.709Z,47.31
2018-06-15T23:24:26.411Z,47.39
2018-06-15T23:26:56.319Z,47.36
2018-06-15T23:29:22.953Z,47.38
2018-06-15T23:31:49.638Z,47.43
2018-06-15T23:34:16.275Z,47.41
2018-06-15T23:36:43.048Z,47.38
2018-06-15T23:39:09.678Z,47.48
2018-06-15T23:41:36.395Z,47.53
2018-06-15T23:44:03.030Z,47.42
2018-06-15T23:46:29.670Z,47.45
2018-06-15T23:48:56.321Z,47.53
2018-06-15T23:51:22.962Z,47.47
2018-06-15T23:53:49.606Z,47.42
2018-06-15T23:56:16.240Z,47.40
2018-06-15T23:58:42.931Z,47.47
